createdAt,value
2023-03-07T00:01:08.566Z,81.50
2023-03-07T00:03:36.792Z,81.90
2023-03-07T00:06:09.861Z,81.80
2023-03-07T00:08:36.780Z,81.70
2023-03-07T00:11:09.006Z,81.70
2023-03-07T00:13:37.586Z,81.80
2023-03-07T00:16:06.994Z,81.40
2023-03-07T00:18:34.507Z,81.40
2023-03-07T00:21:06.370Z,80.90
2023-03-07T00:23:34.993Z,81.30
2023-03-07T00:26:04.190Z,81.70
2023-03-07T00:28:30.979Z,81.50
2023-03-07T00:31:07.138Z,81.40
2023-03-07T00:33:34.467Z,81.10
2023-03-07T00:36:03.874Z,81.60
2023-03-07T00:38:31.924Z,81.10
2023-03-07T00:41:04.514Z,80.90
2023-03-07T00:43:32.002Z,81.10
2023-03-07T00:45:59.454Z,80.50
2023-03-07T00:48:26.972Z,80.40
2023-03-07T00:50:54.135Z,80.70
2023-03-07T00:53:21.646Z,80.70
2023-03-07T00:56:04.031Z,80.80
2023-03-07T00:58:32.982Z,80.90
2023-03-07T01:01:00.365Z,81.30
2023-03-07T01:03:27.769Z,80.80
2023-03-07T01:05:54.862Z,80.50
2023-03-07T01:08:22.216Z,80.90
2023-03-07T01:10:49.180Z,80.50
2023-03-07T01:13:17.779Z,80.60
2023-03-07T01:15:44.794Z,80.70
2023-03-07T01:18:11.587Z,80.70
2023-03-07T01:20:39.592Z,80.10
2023-03-07T01:23:06.645Z,80.30
2023-03-07T01:25:39.143Z,80.10
2023-03-07T01:28:06.539Z,80.30
2023-03-07T01:30:33.933Z,79.70
2023-03-07T01:33:02.219Z,80.30
2023-03-07T01:35:29.520Z,80.00
2023-03-07T01:37:56.541Z,80.10
2023-03-07T01:40:24.284Z,80.20
2023-03-07T01:42:53.033Z,80.60
2023-03-07T01:45:35.277Z,80.40
2023-03-07T01:48:02.028Z,80.60
2023-03-07T01:50:29.007Z,80.40
2023-03-07T01:52:59.284Z,80.10
2023-03-07T01:55:31.000Z,80.60
2023-03-07T01:58:05.983Z,80.50
2023-03-07T02:00:36.176Z,80.50
2023-03-07T02:03:25.927Z,80.60
2023-03-07T02:06:01.600Z,80.60
2023-03-07T02:08:30.742Z,80.70
2023-03-07T02:10:57.508Z,81.00
2023-03-07T02:13:24.272Z,80.80
2023-03-07T02:15:51.937Z,80.30
2023-03-07T02:18:28.443Z,80.30
2023-03-07T02:21:34.945Z,80.10
2023-03-07T02:24:25.561Z,80.20
2023-03-07T02:26:53.340Z,80.20
2023-03-07T02:29:20.984Z,80.50
2023-03-07T02:31:47.923Z,80.00
2023-03-07T02:34:29.021Z,80.40
2023-03-07T02:37:16.349Z,80.40
2023-03-07T02:39:45.547Z,80.40
2023-03-07T02:42:22.050Z,80.10
2023-03-07T02:45:06.453Z,79.60
2023-03-07T02:47:33.371Z,80.10
2023-03-07T02:50:00.157Z,79.50
2023-03-07T02:52:28.571Z,78.50
2023-03-07T02:54:56.049Z,78.90
2023-03-07T02:57:22.756Z,78.80
2023-03-07T02:59:49.606Z,78.70
2023-03-07T03:02:16.475Z,78.60
2023-03-07T03:04:43.342Z,78.50
2023-03-07T03:07:10.211Z,78.10
2023-03-07T03:09:36.943Z,77.70
2023-03-07T03:12:03.832Z,78.10
2023-03-07T03:14:30.662Z,78.10
2023-03-07T03:16:57.400Z,78.40
2023-03-07T03:19:24.180Z,77.90
2023-03-07T03:21:50.929Z,77.90
2023-03-07T03:24:17.939Z,78.10
2023-03-07T03:26:44.673Z,78.00
2023-03-07T03:29:11.398Z,78.50
2023-03-07T03:31:38.287Z,78.20
2023-03-07T03:34:05.630Z,78.50
2023-03-07T03:36:32.784Z,78.40
2023-03-07T03:38:59.853Z,77.80
2023-03-07T03:41:26.875Z,78.20
2023-03-07T03:43:54.082Z,78.60
2023-03-07T03:46:20.968Z,78.70
2023-03-07T03:48:53.299Z,78.80
2023-03-07T03:51:20.450Z,78.90
2023-03-07T03:53:47.249Z,79.00
2023-03-07T03:56:17.887Z,79.60
2023-03-07T03:58:54.007Z,79.30
2023-03-07T04:01:22.994Z,79.50
2023-03-07T04:03:51.803Z,79.50
2023-03-07T04:06:28.205Z,79.60
2023-03-07T04:08:55.631Z,79.40
2023-03-07T04:11:24.058Z,78.90
2023-03-07T04:13:51.252Z,78.50
2023-03-07T04:16:19.925Z,78.60
2023-03-07T04:18:46.753Z,78.60
2023-03-07T04:21:13.526Z,78.60
2023-03-07T04:23:40.305Z,78.90
2023-03-07T04:26:09.072Z,79.00
2023-03-07T04:28:49.284Z,79.00
2023-03-07T04:31:24.637Z,79.50
2023-03-07T04:33:52.845Z,78.90
2023-03-07T04:36:21.019Z,78.80
2023-03-07T04:38:48.625Z,78.30
2023-03-07T04:41:21.773Z,78.30
2023-03-07T04:43:48.511Z,78.30
2023-03-07T04:46:17.267Z,78.30
2023-03-07T04:48:44.721Z,78.40
2023-03-07T04:51:11.974Z,78.60
2023-03-07T04:53:38.761Z,78.40
2023-03-07T04:56:08.045Z,77.90
2023-03-07T04:58:36.039Z,77.90
2023-03-07T05:01:04.338Z,78.00
2023-03-07T05:03:31.418Z,78.10
2023-03-07T05:06:05.389Z,77.80
2023-03-07T05:08:32.783Z,76.80
2023-03-07T05:10:59.535Z,77.60
2023-03-07T05:13:26.394Z,77.80
2023-03-07T05:15:55.252Z,78.10
2023-03-07T05:18:22.586Z,77.80
2023-03-07T05:20:49.936Z,77.20
2023-03-07T05:23:17.811Z,77.10
2023-03-07T05:25:46.804Z,76.90
2023-03-07T05:28:14.167Z,77.40
2023-03-07T05:30:40.900Z,76.80
2023-03-07T05:33:07.649Z,77.60
2023-03-07T05:35:34.775Z,77.00
2023-03-07T05:38:01.593Z,76.80
2023-03-07T05:40:29.592Z,77.60
2023-03-07T05:42:56.325Z,77.10
2023-03-07T05:45:23.053Z,77.90
2023-03-07T05:47:49.861Z,77.20
2023-03-07T05:50:18.984Z,77.20
2023-03-07T05:52:45.787Z,77.80
2023-03-07T05:55:12.549Z,77.90
2023-03-07T05:57:39.330Z,77.70
2023-03-07T06:00:07.308Z,78.10
2023-03-07T06:02:34.230Z,78.20
2023-03-07T06:05:00.946Z,77.80
2023-03-07T06:07:27.715Z,78.20
2023-03-07T06:09:54.570Z,78.50
2023-03-07T06:12:21.289Z,79.00
2023-03-07T06:14:48.364Z,78.50
2023-03-07T06:17:15.226Z,78.60
2023-03-07T06:19:42.187Z,78.20
2023-03-07T06:22:09.443Z,78.10
2023-03-07T06:24:36.560Z,78.70
2023-03-07T06:27:03.501Z,79.20
2023-03-07T06:29:30.331Z,78.50
2023-03-07T06:31:57.080Z,78.60
2023-03-07T06:34:23.875Z,79.50
2023-03-07T06:36:50.585Z,79.20
2023-03-07T06:39:20.961Z,78.60
2023-03-07T06:41:50.939Z,78.90
2023-03-07T06:44:18.364Z,79.30
2023-03-07T06:46:45.950Z,78.40
2023-03-07T06:49:13.039Z,79.50
2023-03-07T06:51:39.895Z,79.10
2023-03-07T06:54:06.734Z,79.20
2023-03-07T06:56:34.717Z,78.40
2023-03-07T06:59:01.599Z,78.60
2023-03-07T07:01:28.935Z,77.70
2023-03-07T07:03:56.525Z,78.30
2023-03-07T07:06:23.358Z,77.70
2023-03-07T07:08:53.150Z,77.50
2023-03-07T07:11:19.874Z,78.10
2023-03-07T07:13:46.686Z,78.40
2023-03-07T07:16:13.466Z,77.20
2023-03-07T07:18:40.187Z,77.60
2023-03-07T07:21:07.003Z,77.70
2023-03-07T07:23:33.742Z,78.40
2023-03-07T07:26:01.693Z,77.80
2023-03-07T07:28:28.696Z,77.50
2023-03-07T07:30:55.425Z,78.30
2023-03-07T07:33:22.235Z,78.30
2023-03-07T07:35:49.092Z,78.80
2023-03-07T07:38:15.863Z,78.00
2023-03-07T07:40:42.617Z,78.00
2023-03-07T07:43:14.964Z,79.20
2023-03-07T07:45:41.743Z,77.70
2023-03-07T07:48:08.647Z,77.60
2023-03-07T07:50:35.825Z,77.00
2023-03-07T07:53:02.657Z,78.00
2023-03-07T07:55:29.605Z,77.50
2023-03-07T07:57:56.374Z,78.50
2023-03-07T08:00:23.287Z,77.10
2023-03-07T08:02:50.844Z,77.60
2023-03-07T08:05:19.697Z,76.70
2023-03-07T08:07:46.973Z,77.20
2023-03-07T08:10:17.948Z,77.50
2023-03-07T08:12:51.571Z,77.10
2023-03-07T08:15:21.242Z,77.70
2023-03-07T08:17:51.328Z,76.30
2023-03-07T08:20:19.901Z,76.40
2023-03-07T08:22:48.625Z,76.90
2023-03-07T08:25:23.736Z,75.80
2023-03-07T08:27:55.100Z,76.40
2023-03-07T08:30:23.765Z,75.50
2023-03-07T08:32:52.886Z,76.10
2023-03-07T08:35:20.158Z,76.30
2023-03-07T08:37:49.100Z,77.00
2023-03-07T08:40:16.624Z,77.10
2023-03-07T08:42:43.858Z,76.40
2023-03-07T08:45:11.469Z,77.50
2023-03-07T08:47:38.215Z,76.00
2023-03-07T08:50:06.033Z,76.10
2023-03-07T08:52:32.916Z,75.80
2023-03-07T08:54:59.649Z,77.20
2023-03-07T08:57:27.157Z,75.10
2023-03-07T08:59:53.868Z,75.50
2023-03-07T09:02:21.168Z,75.10
2023-03-07T09:04:47.997Z,75.00
2023-03-07T09:07:15.237Z,75.70
2023-03-07T09:09:42.469Z,75.10
2023-03-07T09:12:09.407Z,75.10
2023-03-07T09:14:36.197Z,74.30
2023-03-07T09:17:02.940Z,74.90
2023-03-07T09:19:29.696Z,75.90
2023-03-07T09:21:56.461Z,75.20
2023-03-07T09:24:23.155Z,75.50
2023-03-07T09:26:50.006Z,73.90
2023-03-07T09:29:16.963Z,74.10
2023-03-07T09:31:44.257Z,74.20
2023-03-07T09:34:12.128Z,75.60
2023-03-07T09:36:38.888Z,73.80
2023-03-07T09:39:06.081Z,74.00
2023-03-07T09:41:56.161Z,75.10
2023-03-07T09:44:46.225Z,74.00
2023-03-07T09:47:12.946Z,74.10
2023-03-07T09:49:48.458Z,73.50
2023-03-07T09:52:28.498Z,72.70
2023-03-07T09:55:01.208Z,73.20
2023-03-07T09:57:34.319Z,72.50
2023-03-07T10:00:07.392Z,72.80
2023-03-07T10:02:59.921Z,72.70
2023-03-07T10:05:51.468Z,73.10
2023-03-07T10:08:30.375Z,71.70
2023-03-07T10:11:18.447Z,70.30
2023-03-07T10:14:13.962Z,71.30
2023-03-07T10:17:05.809Z,69.40
2023-03-07T10:20:16.795Z,70.00
2023-03-07T10:23:07.175Z,68.60
2023-03-07T10:25:45.474Z,69.50
2023-03-07T10:28:26.601Z,69.90
2023-03-07T10:31:00.714Z,69.30
2023-03-07T10:33:30.239Z,70.10
2023-03-07T10:36:08.205Z,70.20
2023-03-07T10:38:35.949Z,66.60
2023-03-07T10:41:21.522Z,68.80
2023-03-07T10:43:50.838Z,66.70
2023-03-07T10:46:41.565Z,68.80
2023-03-07T10:49:21.991Z,68.90
2023-03-07T10:52:01.131Z,67.40
2023-03-07T10:54:38.366Z,67.70
2023-03-07T10:57:16.866Z,69.20
2023-03-07T10:59:48.679Z,68.90
2023-03-07T11:02:26.867Z,69.80
2023-03-07T11:04:54.040Z,68.30
2023-03-07T11:07:35.831Z,68.10
2023-03-07T11:10:34.303Z,68.20
2023-03-07T11:13:13.992Z,67.70
2023-03-07T11:15:40.970Z,68.00
2023-03-07T11:18:27.895Z,68.00
2023-03-07T11:20:54.880Z,69.70
2023-03-07T11:23:27.528Z,69.70
2023-03-07T11:25:56.215Z,68.20
2023-03-07T11:28:35.335Z,67.80
2023-03-07T11:31:27.710Z,67.20
2023-03-07T11:34:10.822Z,65.00
2023-03-07T11:36:40.965Z,65.70
2023-03-07T11:39:18.399Z,66.60
2023-03-07T11:41:55.265Z,66.70
2023-03-07T11:44:46.575Z,66.90
2023-03-07T11:47:28.252Z,65.20
2023-03-07T11:50:11.596Z,63.10
2023-03-07T11:52:41.335Z,61.90
2023-03-07T11:55:36.083Z,63.20
2023-03-07T11:58:02.838Z,62.30
2023-03-07T12:00:56.937Z,60.50
2023-03-07T12:03:48.304Z,63.10
2023-03-07T12:06:35.467Z,62.70
2023-03-07T12:09:09.257Z,60.90
2023-03-07T12:11:42.227Z,65.40
2023-03-07T12:14:41.114Z,63.50
2023-03-07T12:17:16.005Z,66.40
2023-03-07T12:20:00.843Z,63.30
2023-03-07T12:22:49.403Z,65.00
2023-03-07T12:25:26.320Z,63.70
2023-03-07T12:27:56.190Z,62.90
2023-03-07T12:30:39.464Z,64.70
2023-03-07T12:33:07.125Z,64.60
2023-03-07T12:35:44.904Z,64.80
2023-03-07T12:38:33.472Z,64.80
2023-03-07T12:41:24.222Z,64.00
2023-03-07T12:43:56.954Z,64.90
2023-03-07T12:46:31.691Z,65.80
2023-03-07T12:49:16.807Z,65.20
2023-03-07T12:51:53.698Z,66.90
2023-03-07T12:54:44.311Z,65.90
2023-03-07T12:57:20.810Z,65.40
2023-03-07T12:59:50.710Z,65.60
2023-03-07T13:02:24.759Z,66.20
2023-03-07T13:04:51.585Z,65.10
2023-03-07T13:07:24.892Z,65.80
2023-03-07T13:09:54.532Z,66.20
2023-03-07T13:12:24.296Z,64.60
2023-03-07T13:15:31.019Z,63.00
2023-03-07T13:17:59.734Z,63.60
2023-03-07T13:20:37.186Z,65.30
2023-03-07T13:23:25.560Z,63.70
2023-03-07T13:25:58.490Z,64.00
2023-03-07T13:28:46.625Z,62.40
2023-03-07T13:31:16.402Z,63.80
2023-03-07T13:33:43.735Z,64.80
2023-03-07T13:36:32.637Z,64.40
2023-03-07T13:38:59.765Z,64.80
2023-03-07T13:41:48.786Z,60.50
2023-03-07T13:44:29.144Z,63.30
2023-03-07T13:47:01.182Z,64.10
2023-03-07T13:49:39.842Z,62.80
2023-03-07T13:52:22.259Z,64.50
2023-03-07T13:54:51.007Z,63.00
2023-03-07T13:57:27.115Z,62.90
2023-03-07T13:59:55.429Z,62.40
2023-03-07T14:02:23.305Z,61.80
2023-03-07T14:04:55.332Z,62.70
2023-03-07T14:07:28.342Z,62.40
2023-03-07T14:10:22.507Z,62.70
2023-03-07T14:12:51.855Z,59.50
2023-03-07T14:15:33.881Z,59.90
2023-03-07T14:18:20.492Z,64.20
2023-03-07T14:21:12.165Z,61.60
2023-03-07T14:23:56.920Z,62.00
2023-03-07T14:26:33.362Z,62.20
2023-03-07T14:29:03.245Z,63.70
2023-03-07T14:31:37.705Z,63.60
2023-03-07T14:34:46.976Z,64.20
2023-03-07T14:37:20.938Z,64.00
2023-03-07T14:39:59.615Z,62.60
2023-03-07T14:42:47.340Z,62.30
2023-03-07T14:45:41.932Z,63.70
2023-03-07T14:48:33.785Z,63.40
2023-03-07T14:51:11.502Z,61.90
2023-03-07T14:53:39.036Z,61.60
2023-03-07T14:56:09.253Z,61.40
2023-03-07T14:58:46.705Z,63.60
2023-03-07T15:01:15.989Z,61.40
2023-03-07T15:03:53.929Z,62.50
2023-03-07T15:06:23.879Z,63.30
2023-03-07T15:08:52.241Z,60.40
2023-03-07T15:11:54.589Z,60.80
2023-03-07T15:15:01.603Z,61.80
2023-03-07T15:17:44.042Z,62.90
2023-03-07T15:20:23.497Z,63.50
2023-03-07T15:22:52.723Z,60.90
2023-03-07T15:25:25.528Z,61.40
2023-03-07T15:28:27.115Z,62.10
2023-03-07T15:30:54.141Z,62.50
2023-03-07T15:33:23.089Z,61.90
2023-03-07T15:36:12.759Z,61.50
2023-03-07T15:38:43.843Z,59.10
2023-03-07T15:41:36.301Z,58.40
2023-03-07T15:44:18.676Z,57.40
2023-03-07T15:46:51.488Z,54.30
2023-03-07T15:49:42.676Z,55.50
2023-03-07T15:52:20.702Z,53.50
2023-03-07T15:54:51.785Z,54.80
2023-03-07T15:57:24.518Z,53.60
2023-03-07T16:00:00.578Z,54.20
2023-03-07T16:02:38.316Z,53.30
2023-03-07T16:05:25.425Z,52.40
2023-03-07T16:07:54.665Z,53.60
2023-03-07T16:10:24.554Z,52.50
2023-03-07T16:12:51.440Z,54.10
2023-03-07T16:15:21.099Z,52.70
2023-03-07T16:17:53.012Z,52.90
2023-03-07T16:20:23.007Z,49.50
2023-03-07T16:22:49.966Z,50.30
2023-03-07T16:25:17.222Z,51.40
2023-03-07T16:27:56.423Z,50.40
2023-03-07T16:30:25.622Z,52.30
2023-03-07T16:32:52.770Z,51.80
2023-03-07T16:35:25.301Z,52.40
2023-03-07T16:37:52.641Z,54.60
2023-03-07T16:40:20.709Z,53.80
2023-03-07T16:42:50.453Z,54.80
2023-03-07T16:45:22.618Z,55.00
2023-03-07T16:47:52.732Z,57.50
2023-03-07T16:50:22.160Z,55.70
2023-03-07T16:52:49.072Z,56.40
2023-03-07T16:55:17.729Z,58.70
2023-03-07T16:57:51.052Z,58.20
2023-03-07T17:00:23.652Z,57.80
2023-03-07T17:02:53.237Z,58.70
2023-03-07T17:05:25.445Z,58.40
2023-03-07T17:07:56.608Z,58.10
2023-03-07T17:10:26.340Z,59.10
2023-03-07T17:12:55.014Z,58.30
2023-03-07T17:15:26.301Z,58.90
2023-03-07T17:17:53.233Z,59.10
2023-03-07T17:20:20.468Z,59.20
2023-03-07T17:22:47.211Z,60.90
2023-03-07T17:25:14.123Z,62.10
2023-03-07T17:27:48.871Z,62.10
2023-03-07T17:30:21.035Z,61.30
2023-03-07T17:32:48.029Z,61.20
2023-03-07T17:35:15.600Z,61.30
2023-03-07T17:37:45.163Z,60.50
2023-03-07T17:40:13.137Z,61.90
2023-03-07T17:42:43.903Z,61.90
2023-03-07T17:45:12.808Z,62.20
2023-03-07T17:47:39.833Z,61.30
2023-03-07T17:50:08.053Z,60.90
2023-03-07T17:52:34.867Z,61.30
2023-03-07T17:55:01.842Z,60.50
2023-03-07T17:57:29.408Z,61.10
2023-03-07T17:59:56.353Z,61.70
2023-03-07T18:02:23.203Z,62.10
2023-03-07T18:04:51.529Z,61.10
2023-03-07T18:07:19.877Z,61.10
2023-03-07T18:09:48.513Z,61.00
2023-03-07T18:12:18.314Z,60.90
2023-03-07T18:14:45.136Z,60.40
2023-03-07T18:17:11.902Z,60.80
2023-03-07T18:19:39.222Z,60.90
2023-03-07T18:22:06.478Z,61.00
2023-03-07T18:24:33.599Z,62.90
2023-03-07T18:27:01.048Z,62.10
2023-03-07T18:29:29.058Z,62.90
2023-03-07T18:31:56.585Z,62.50
2023-03-07T18:34:24.918Z,62.90
2023-03-07T18:36:54.119Z,63.10
2023-03-07T18:39:23.021Z,62.80
2023-03-07T18:41:50.463Z,63.50
2023-03-07T18:44:18.545Z,63.00
2023-03-07T18:46:45.463Z,62.80
2023-03-07T18:49:12.423Z,62.80
2023-03-07T18:51:39.703Z,62.30
2023-03-07T18:54:06.472Z,62.40
2023-03-07T18:56:33.402Z,62.60
2023-03-07T18:59:00.309Z,61.90
2023-03-07T19:01:35.085Z,62.40
2023-03-07T19:04:04.256Z,61.90
2023-03-07T19:06:37.103Z,61.10
2023-03-07T19:09:04.252Z,61.90
2023-03-07T19:11:31.671Z,61.70
2023-03-07T19:13:58.847Z,61.50
2023-03-07T19:16:27.566Z,61.60
2023-03-07T19:18:55.027Z,61.50
2023-03-07T19:21:24.738Z,61.00
2023-03-07T19:23:52.726Z,62.10
2023-03-07T19:26:21.030Z,61.10
2023-03-07T19:28:50.240Z,60.00
2023-03-07T19:31:19.762Z,61.20
2023-03-07T19:33:47.904Z,60.20
2023-03-07T19:36:23.759Z,60.60
2023-03-07T19:38:54.452Z,60.40
2023-03-07T19:41:23.663Z,60.40
2023-03-07T19:43:50.789Z,60.50
2023-03-07T19:46:19.171Z,60.50
2023-03-07T19:48:45.963Z,60.20
2023-03-07T19:51:15.272Z,60.50
2023-03-07T19:53:43.075Z,61.60
2023-03-07T19:56:20.938Z,61.80
2023-03-07T19:58:47.782Z,61.90
2023-03-07T20:01:17.318Z,62.00
2023-03-07T20:03:44.356Z,63.50
2023-03-07T20:06:25.810Z,64.50
2023-03-07T20:08:54.456Z,64.40
2023-03-07T20:11:27.470Z,64.30
2023-03-07T20:13:55.932Z,64.50
2023-03-07T20:16:23.263Z,64.30
2023-03-07T20:18:53.606Z,64.60
2023-03-07T20:21:22.125Z,64.80
2023-03-07T20:23:49.277Z,64.70
2023-03-07T20:26:22.759Z,64.70
2023-03-07T20:28:49.918Z,64.50
2023-03-07T20:31:17.525Z,64.30
2023-03-07T20:33:46.162Z,64.80
2023-03-07T20:36:24.934Z,63.50
2023-03-07T20:38:54.692Z,63.80
2023-03-07T20:41:23.818Z,63.60
2023-03-07T20:43:51.997Z,63.30
2023-03-07T20:46:20.760Z,63.20
2023-03-07T20:48:48.492Z,63.60
2023-03-07T20:51:21.769Z,62.90
2023-03-07T20:53:54.331Z,63.60
2023-03-07T20:56:22.289Z,64.00
2023-03-07T20:58:49.447Z,63.50
2023-03-07T21:01:17.863Z,64.00
2023-03-07T21:03:45.268Z,64.70
2023-03-07T21:06:12.091Z,63.60
2023-03-07T21:08:38.924Z,63.30
2023-03-07T21:11:10.796Z,64.50
2023-03-07T21:13:39.540Z,64.00
2023-03-07T21:16:09.988Z,64.30
2023-03-07T21:18:37.395Z,63.40
2023-03-07T21:21:10.041Z,64.70
2023-03-07T21:23:37.602Z,64.70
2023-03-07T21:26:07.000Z,63.90
2023-03-07T21:28:34.784Z,63.90
2023-03-07T21:31:02.328Z,64.30
2023-03-07T21:33:30.058Z,64.50
2023-03-07T21:35:57.599Z,64.20
2023-03-07T21:38:24.641Z,63.50
2023-03-07T21:40:53.232Z,64.40
2023-03-07T21:43:20.361Z,63.40
2023-03-07T21:45:47.421Z,63.70
2023-03-07T21:48:16.846Z,63.00
2023-03-07T21:50:44.600Z,63.00
2023-03-07T21:53:11.757Z,62.50
2023-03-07T21:55:38.608Z,63.60
2023-03-07T21:58:06.352Z,63.80
2023-03-07T22:00:33.430Z,64.40
2023-03-07T22:03:00.157Z,63.90
2023-03-07T22:05:26.890Z,63.40
2023-03-07T22:07:53.636Z,64.40
2023-03-07T22:10:21.129Z,63.60
2023-03-07T22:12:48.421Z,64.80
2023-03-07T22:15:15.203Z,64.10
2023-03-07T22:17:41.924Z,63.20
2023-03-07T22:20:10.866Z,64.20
2023-03-07T22:22:37.609Z,63.10
2023-03-07T22:25:04.667Z,64.30
2023-03-07T22:27:32.475Z,64.00
2023-03-07T22:29:59.229Z,63.00
2023-03-07T22:32:26.061Z,63.70
2023-03-07T22:34:52.966Z,63.80
2023-03-07T22:37:19.753Z,63.20
2023-03-07T22:39:46.498Z,63.00
2023-03-07T22:42:13.254Z,63.60
2023-03-07T22:44:40.243Z,64.00
2023-03-07T22:47:07.051Z,63.30
2023-03-07T22:49:33.932Z,63.70
2023-03-07T22:52:00.668Z,64.00
2023-03-07T22:54:27.421Z,63.00
2023-03-07T22:56:54.185Z,63.50
2023-03-07T22:59:20.996Z,63.70
2023-03-07T23:01:48.481Z,64.40
2023-03-07T23:04:15.312Z,64.30
2023-03-07T23:06:42.062Z,64.50
2023-03-07T23:09:10.142Z,64.10
2023-03-07T23:11:37.123Z,64.40
2023-03-07T23:14:04.565Z,65.40
2023-03-07T23:16:32.637Z,65.00
2023-03-07T23:18:59.826Z,65.00
2023-03-07T23:21:29.949Z,64.20
2023-03-07T23:23:57.244Z,64.40
2023-03-07T23:26:30.127Z,64.50
2023-03-07T23:28:57.424Z,63.50
2023-03-07T23:31:30.226Z,63.50
2023-03-07T23:33:58.958Z,64.40
2023-03-07T23:36:27.578Z,63.80
2023-03-07T23:38:54.863Z,64.40
2023-03-07T23:41:22.535Z,64.80
2023-03-07T23:43:56.703Z,64.10
2023-03-07T23:46:24.739Z,65.00
2023-03-07T23:48:52.422Z,64.80
2023-03-07T23:51:20.213Z,65.00
2023-03-07T23:53:46.982Z,65.50
2023-03-07T23:56:13.948Z,65.60
2023-03-07T23:58:42.089Z,65.00
